Clover Valley, Nevada Weather observations

Data are for 10 minute period ending at time listed.
 Day   Time   Solar   Ave.   Ave.  Ave.  Vector  Max.   Baro.   Total    
  of    of     Rad.   Air    Rel.  Wind   Wind   Wind  Press.  Precip.   
Year   Day            Temp.  Hum.  Speed  Dir.   Gust                    
2017   (PST)  Kw/m2    F      %     mph   deg.    mph    mb.     in.     
-------------------------------------------------------------------------
 324   12:20   0.22   39.9    86    7.4   316    10.8   827.4    0.00 
 324   12:30   0.22   40.0    85    4.2   322    11.2   827.4    0.00 
 324   12:40   0.22   40.7    82    6.1   347    11.0   827.4    0.00 
 324   12:50   0.22   40.6    82    6.6   345     9.9   827.3    0.00 
 324   13:00   0.18   40.5    82    5.2   340     8.6   827.2    0.00 
 324   13:10   0.15   40.6    81    2.5     5     5.4   827.0    0.00 
 324   13:20   0.09   41.0    80    4.7     4     6.6   827.1    0.00 
 324   13:30   0.09   41.1    81    5.4    28     7.4   827.1    0.00 
 324   13:40   0.09   41.5    80    6.0    10     9.6   827.1    0.00 
 324   13:50   0.05   41.7    80    5.2    39     7.8   827.2    0.00 
 324   14:00   0.03   42.4    79    4.3   112    10.7   827.2    0.00 
 324   14:10   0.03   43.5    76    5.6   122    11.4   827.2    0.00 
 324   14:20   0.03   42.5    77    5.1   335     9.9   827.2    0.00 
 324   14:30   0.03   42.3    78    5.2   355     9.1   827.2    0.00 
 324   14:40   0.03   42.0    80    3.3   319     8.0   827.3    0.00 
 324   14:50   0.03   42.1    80    3.7   310     6.4   827.1    0.00 
 324   15:00   0.03   41.9    81    3.2    28     6.9   827.1    0.00 
 324   15:10   0.02   41.8    82    3.7     1     8.2   827.3    0.00 
 324   15:20   0.02   41.9    81    2.3    79     7.8   827.3    0.00 
 324   15:30   0.01   43.1    78    3.2   292     6.5   827.3    0.00 
 324   15:40   0.01   42.9    77    4.3   356     7.6   827.4    0.00 
 324   15:50   0.00   41.7    81    4.0     4     6.5   827.8    0.00 
 324   16:00   0.00   41.5    82    3.6    41     5.0   827.8    0.00 
 324   16:10   0.00   41.7    82    5.8   342    10.4   828.1    0.00 
 324   16:20   0.00   41.7    81    4.2    45     7.0   828.0    0.00 
 324   16:30   0.00   41.8    80    5.3    26     8.8   828.0    0.00 
 324   16:40   0.00   42.9    76    3.2    52     6.2   828.2    0.00 
 324   16:50   0.00   43.2    76    4.0   212     8.4   828.3    0.00 
 324   17:00   0.00   43.7    74    5.0   148     8.7   828.1    0.00 
 324   17:10   0.00   44.2    73    6.2   151    11.5   827.9    0.00 
 324   17:20   0.00   49.3    60    6.8   132    11.4   828.2    0.00 
 324   17:30   0.00   49.8    58    7.3   142    13.0   828.2    0.00 
 324   17:40   0.00   50.0    58    5.9   140    11.2   828.4    0.00 
 324   17:50   0.00   50.1    58   10.3   166    15.8   828.2    0.00 
 324   18:00   0.00   50.5    57    7.7   176    13.9   828.4    0.00 
 324   18:10   0.00   51.0    56    9.6   164    16.1   828.4    0.00 
 324   18:20   0.00   50.8    57   10.3   173    16.0   828.4    0.00 
 324   18:30   0.00   50.6    58    8.9   172    12.1   828.4    0.00 
 324   18:40   0.00   49.9    60    7.8   170    13.8   828.6    0.00 
 324   18:50   0.00   46.2    69    8.2   181    12.4   828.8    0.00 
 324   19:00   0.00   47.3    67    8.5   164    12.1   828.7    0.00 
 324   19:10   0.00   47.4    66    6.4   159    11.8   828.7    0.00 
 324   19:20   0.00   47.8    66    5.6   162    10.5   828.9    0.00 
 324   19:30   0.00   46.0    69    7.5   178    11.0   829.1    0.00 
 324   19:40   0.00   46.8    68    7.9   160    12.3   829.1    0.00 
 324   19:50   0.00   47.1    67    8.4   138    11.2   829.1    0.00 
 324   20:00   0.00   49.3    63    7.6   118    13.9   829.0    0.00 
 324   20:10   0.00   50.9    60    7.8   131    12.4   829.0    0.00 
 324   20:20   0.00   51.7    58    8.7   162    18.6   829.1    0.00 
 324   20:30   0.00   52.1    58    6.6   161    11.2   829.3    0.00 
 324   20:40   0.00   52.7    56    6.4   144    11.6   829.3    0.00 
 324   20:50   0.00   53.3    55    5.5   154     9.8   829.5    0.00 
 324   21:00   0.00   53.4    55    4.3   164     9.1   829.7    0.00 
 324   21:10   0.00   53.5    54    3.9    94    11.8   829.7    0.00 
 324   21:20   0.00   53.3    55    4.2   128     7.7   829.7    0.00 
 324   21:30   0.00   52.6    56    3.6   160     7.3   829.9    0.00 
 324   21:40   0.00   53.0    56    3.9   128     9.2   830.0    0.00 
 324   21:50   0.00   53.8    54    4.6   149    19.1   830.1    0.00 
 324   22:00   0.00   54.1    54    7.1   136    16.2   830.3    0.00 
 324   22:10   0.00   53.1    56    6.6   160    10.2   830.5    0.00 
 324   22:20   0.00   52.9    57    5.9   173     9.1   830.7    0.00 
 324   22:30   0.00   52.8    57    6.2   163     8.9   830.6    0.00 
 324   22:40   0.00   51.1    62    5.9   190     8.0   830.7    0.00 
 324   22:50   0.00   51.3    62    5.9   209     9.1   830.7    0.00 
 324   23:00   0.00   51.1    63    5.5   213    10.7   830.6    0.00 
 324   23:10   0.00   52.1    61    8.2   229    14.4   830.7    0.00 
 324   23:20   0.00   51.8    63   11.0   208    17.8   830.6    0.00 
 324   23:30   0.00   51.8    64    8.7   217    14.4   830.8    0.00 
 324   23:40   0.00   51.7    64   10.3   228    17.3   830.9    0.00 
 324   23:50   0.00   51.4    65   12.3   238    18.7   831.0    0.00 
 325    0:00   0.00   50.9    68   15.8   247    21.8   830.9    0.00 
 325    0:10   0.00   50.6    69   14.4   254    21.8   830.9    0.00 
 325    0:20   0.00   50.7    70   11.0   263    15.8   831.2    0.00 
 325    0:30   0.00   51.6    68    8.6   262    13.6   831.3    0.00 
 325    0:40   0.00   51.5    69   11.3   256    19.4   831.3    0.00 
 325    0:50   0.00   50.3    75   16.3   241    23.1   831.2    0.00 
 325    1:00   0.00   49.5    79   17.3   247    24.3   831.0    0.00 
 325    1:10   0.00   49.5    79   18.5   237    28.1   831.0    0.00 
 325    1:20   0.00   49.5    79   16.6   250    25.6   831.2    0.00 
 325    1:30   0.00   49.6    79   16.8   246    25.0   831.3    0.01 
 325    1:40   0.00   49.5    79   12.5   250    22.4   831.4    0.00 
 325    1:50   0.00   49.4    79   14.4   246    20.8   831.4    0.00 
 325    2:00   0.00   49.5    80   13.8   244    20.6   831.4    0.01 
 325    2:10   0.00   49.0    81   10.4   251    15.9   831.5    0.00 
 325    2:20   0.00   48.8    82    9.7   255    16.4   831.6    0.00 
 325    2:30   0.00   48.8    82   10.1   253    15.1   831.5    0.01 
 325    2:40   0.00   48.3    84    9.2   249    14.0   831.5    0.00 
 325    2:50   0.00   47.6    85    4.8   268     8.9   831.5    0.00 
 325    3:00   0.00   47.4    85    3.2    47     6.9   831.5    0.00 
 325    3:10   0.00   47.0    85    5.0   137     8.2   831.5    0.00 
 325    3:20   0.00   46.8    86    4.1    72     8.3   831.7    0.01 
 325    3:30   0.00   46.3    87    2.9    25     5.2   831.7    0.00 
 325    3:40   0.00   47.1    86    3.0    78     5.9   831.7    0.00 
 325    3:50   0.00   48.1    84    4.9    85    11.2   831.9    0.00 
 325    4:00   0.00   49.6    78    7.4   105    11.9   831.9    0.00 
 325    4:10   0.00   48.1    83    9.6   152    16.3   831.8    0.00 
 325    4:20   0.00   47.8    84    6.5   157    11.3   832.0    0.00 
 325    4:30   0.00   47.4    85    5.9   154     8.0   832.1    0.00 
 325    4:40   0.00   47.1    86    8.0   175    11.5   832.1    0.00 
 325    4:50   0.00   47.8    84    9.7   192    13.2   832.0    0.00 
 325    5:00   0.00   48.4    82   12.3   210    16.9   832.0    0.00 
 325    5:10   0.00   48.0    82    5.9   320    14.7   832.3    0.00 
 325    5:20   0.00   46.9    84    2.3    22     7.5   832.6    0.00 
 325    5:30   0.00   45.9    86    2.1   118     4.8   832.6    0.00 
 325    5:40   0.00   45.5    88    4.0   138     6.6   832.7    0.00 
 325    5:50   0.00   45.7    88    3.1   195     7.1   832.8    0.00 
 325    6:00   0.00   44.1    89    4.3   303     6.4   833.1    0.00 
 325    6:10   0.00   43.8    91    4.7   327     6.8   833.3    0.00 
 325    6:20   0.00   43.5    91    4.6    18     5.8   833.7    0.00 
 325    6:30   0.00   43.6    92    2.1    38     4.2   833.7    0.00 
 325    6:40   0.00   44.3    92    3.2    32     5.4   833.9    0.00 
 325    6:50   0.00   44.6    91    3.7    24     6.4   834.1    0.00 
 325    7:00   0.01   44.6    92    2.4    50     4.3   834.2    0.00 
 325    7:10   0.01   44.6    91    1.2   334     3.1   834.5    0.00 
 325    7:20   0.02   44.5    92    3.3   343     4.7   834.7    0.00 
 325    7:30   0.03   44.4    92    4.1   354     5.3   834.8    0.00 
 325    7:40   0.04   44.7    92    3.9   348     5.3   835.0    0.00 
 325    7:50   0.05   45.0    92    3.1   334     4.3   835.1    0.00 
 325    8:00   0.06   45.4    92    3.6   341     5.0   835.1    0.00 
 325    8:10   0.06   46.0    92    3.8   333     5.6   835.2    0.00 
 325    8:20   0.06   46.4    92    3.3   333     5.6   835.2    0.00 
 325    8:30   0.05   46.6    91    2.8   333     3.9   835.3    0.00 
 325    8:40   0.07   46.7    91    2.2   343     4.1   835.3    0.00 
 325    8:50   0.11   47.2    91    3.2   338     4.4   835.3    0.00 
 325    9:00   0.11   47.6    90    2.7   332     4.6   835.3    0.00 
 325    9:10   0.16   48.5    90    1.5   326     2.3   835.3    0.00 
 325    9:20   0.22   49.1    88    1.5   346     2.6   835.3    0.00 
 325    9:30   0.21   50.0    86    0.8   348     2.0   835.5    0.00 
 325    9:40   0.21   50.7    82    1.0   289     2.7   835.7    0.00 
 325    9:50   0.18   50.5    81    1.2   294     2.6   835.7    0.00 
 325   10:00   0.16   50.8    81    0.5   111     1.8   835.7    0.00 
 325   10:10   0.15   51.1    80    0.6   218     2.1   835.8    0.00 
 325   10:20   0.10   50.8    80    0.1   288     0.7   835.9    0.00 
 325   10:30   0.13   50.5    81    1.2    36     2.7   835.9    0.00 
 325   10:40   0.23   50.8    82    0.4    20     1.7   835.9    0.00 
 325   10:50   0.26   52.0    79    1.5   142     3.8   835.8    0.00 
 325   11:00   0.25   51.7    80    1.7   133     2.9   835.6    0.00 
 325   11:10   0.41   52.8    78    4.4   113     7.7   835.4    0.00 
 325   11:20   0.46   52.7    76    5.1   134     8.0   835.2    0.00 
 325   11:30   0.45   53.7    74    4.0   146     7.8   835.2    0.00 
 325   11:40   0.29   54.3    70    2.6   152     4.4   835.2    0.00 
 325   11:50   0.47   54.7    72    2.0   173     4.5   835.3    0.00 
 325   12:00   0.56   55.3    70    2.8   138     5.6   835.2    0.00 
 325   12:10   0.50   55.9    68    3.1   149     5.3   835.1    0.00 

Return to Clover Valley graphs page.


Western Regional Climate Center,wrcc@dri.edu